sensor_id;sensor_type;location;lat;lon;timestamp;pressure;altitude;pressure_sealevel;temperature;humidity
76128;BME280;64873;50.102;14.434;2022-12-29T00:01:39;99107.19;;;5.79;67.10
76128;BME280;64873;50.102;14.434;2022-12-29T00:04:05;99095.81;;;5.85;66.34
76128;BME280;64873;50.102;14.434;2022-12-29T00:06:31;99089.91;;;5.83;66.58
76128;BME280;64873;50.102;14.434;2022-12-29T00:08:57;99104.28;;;5.74;66.53
76128;BME280;64873;50.102;14.434;2022-12-29T00:11:26;99083.06;;;5.74;66.72
76128;BME280;64873;50.102;14.434;2022-12-29T00:13:53;99087.50;;;5.67;67.49
76128;BME280;64873;50.102;14.434;2022-12-29T00:16:38;99090.66;;;5.77;66.46
76128;BME280;64873;50.102;14.434;2022-12-29T00:19:05;99071.59;;;5.67;66.60
76128;BME280;64873;50.102;14.434;2022-12-29T00:21:31;99061.28;;;5.78;66.12
76128;BME280;64873;50.102;14.434;2022-12-29T00:24:18;99079.66;;;5.80;66.04
76128;BME280;64873;50.102;14.434;2022-12-29T00:26:56;99070.25;;;5.77;66.36
76128;BME280;64873;50.102;14.434;2022-12-29T00:29:41;99063.13;;;5.78;66.40
76128;BME280;64873;50.102;14.434;2022-12-29T00:32:25;99062.97;;;5.58;67.04
76128;BME280;64873;50.102;14.434;2022-12-29T00:35:11;99058.94;;;5.69;66.76
76128;BME280;64873;50.102;14.434;2022-12-29T00:37:43;99063.13;;;5.78;68.30
76128;BME280;64873;50.102;14.434;2022-12-29T00:40:29;99042.78;;;5.85;65.79
76128;BME280;64873;50.102;14.434;2022-12-29T00:43:15;99055.94;;;5.93;66.00
76128;BME280;64873;50.102;14.434;2022-12-29T00:45:58;99055.88;;;5.86;65.20
76128;BME280;64873;50.102;14.434;2022-12-29T00:48:24;99038.13;;;5.87;65.17
76128;BME280;64873;50.102;14.434;2022-12-29T00:51:08;99043.69;;;5.92;65.24
76128;BME280;64873;50.102;14.434;2022-12-29T00:53:34;99048.81;;;5.72;65.26
76128;BME280;64873;50.102;14.434;2022-12-29T00:56:00;99063.19;;;5.84;65.02
76128;BME280;64873;50.102;14.434;2022-12-29T00:58:29;99045.59;;;5.77;65.73
76128;BME280;64873;50.102;14.434;2022-12-29T01:01:06;99060.84;;;5.96;64.82
76128;BME280;64873;50.102;14.434;2022-12-29T01:03:33;99042.16;;;6.04;64.04
76128;BME280;64873;50.102;14.434;2022-12-29T01:06:07;99034.66;;;5.86;64.18
76128;BME280;64873;50.102;14.434;2022-12-29T01:08:33;99038.75;;;5.89;64.02
76128;BME280;64873;50.102;14.434;2022-12-29T01:11:06;99039.69;;;6.03;64.00
76128;BME280;64873;50.102;14.434;2022-12-29T01:13:32;99044.25;;;6.15;62.88
76128;BME280;64873;50.102;14.434;2022-12-29T01:15:58;99034.03;;;6.12;62.78
76128;BME280;64873;50.102;14.434;2022-12-29T01:18:25;99036.88;;;6.04;63.27
76128;BME280;64873;50.102;14.434;2022-12-29T01:20:50;99035.31;;;6.17;62.48
76128;BME280;64873;50.102;14.434;2022-12-29T01:23:16;99025.94;;;6.21;62.30
76128;BME280;64873;50.102;14.434;2022-12-29T01:25:42;99044.66;;;6.12;61.87
76128;BME280;64873;50.102;14.434;2022-12-29T01:28:07;99034.41;;;6.09;62.27
76128;BME280;64873;50.102;14.434;2022-12-29T01:30:36;99042.53;;;6.29;61.34
76128;BME280;64873;50.102;14.434;2022-12-29T01:33:01;99035.88;;;6.12;61.61
76128;BME280;64873;50.102;14.434;2022-12-29T01:35:27;99038.75;;;6.10;62.26
76128;BME280;64873;50.102;14.434;2022-12-29T01:37:53;99036.94;;;6.18;61.77
76128;BME280;64873;50.102;14.434;2022-12-29T01:40:19;99041.31;;;6.32;61.10
76128;BME280;64873;50.102;14.434;2022-12-29T01:42:44;99009.06;;;6.00;61.18
76128;BME280;64873;50.102;14.434;2022-12-29T01:45:12;99026.81;;;6.28;61.59
76128;BME280;64873;50.102;14.434;2022-12-29T01:47:49;99017.34;;;6.19;60.98
76128;BME280;64873;50.102;14.434;2022-12-29T01:50:25;99009.16;;;6.13;61.64
76128;BME280;64873;50.102;14.434;2022-12-29T01:52:57;98999.94;;;6.09;61.47
76128;BME280;64873;50.102;14.434;2022-12-29T01:55:27;99012.03;;;6.19;61.20
76128;BME280;64873;50.102;14.434;2022-12-29T01:57:57;98996.50;;;6.15;61.28
76128;BME280;64873;50.102;14.434;2022-12-29T02:00:25;98997.94;;;6.11;61.04
76128;BME280;64873;50.102;14.434;2022-12-29T02:02:54;98998.41;;;6.22;60.86
76128;BME280;64873;50.102;14.434;2022-12-29T02:05:44;99009.88;;;6.29;60.69
76128;BME280;64873;50.102;14.434;2022-12-29T02:08:11;99005.47;;;6.14;60.83
76128;BME280;64873;50.102;14.434;2022-12-29T02:10:37;98992.44;;;6.20;60.51
76128;BME280;64873;50.102;14.434;2022-12-29T02:13:04;98998.00;;;6.25;60.12
76128;BME280;64873;50.102;14.434;2022-12-29T02:15:45;99000.88;;;6.30;60.56
76128;BME280;64873;50.102;14.434;2022-12-29T02:21:45;98997.75;;;6.20;60.58
76128;BME280;64873;50.102;14.434;2022-12-29T02:24:34;98985.84;;;6.09;60.56
76128;BME280;64873;50.102;14.434;2022-12-29T02:27:29;99010.25;;;6.26;60.62
76128;BME280;64873;50.102;14.434;2022-12-29T02:32:52;99005.13;;;6.24;60.52
76128;BME280;64873;50.102;14.434;2022-12-29T02:44:15;98988.34;;;6.10;60.50
76128;BME280;64873;50.102;14.434;2022-12-29T02:52:23;98988.19;;;6.25;59.85
76128;BME280;64873;50.102;14.434;2022-12-29T02:54:53;98970.81;;;6.16;59.98
76128;BME280;64873;50.102;14.434;2022-12-29T02:59:51;98972.94;;;6.34;59.40
76128;BME280;64873;50.102;14.434;2022-12-29T03:10:37;98965.19;;;6.39;59.21
76128;BME280;64873;50.102;14.434;2022-12-29T03:21:55;98966.63;;;6.35;59.48
76128;BME280;64873;50.102;14.434;2022-12-29T03:24:42;98939.38;;;6.13;59.62
76128;BME280;64873;50.102;14.434;2022-12-29T03:27:11;98954.94;;;6.23;59.85
76128;BME280;64873;50.102;14.434;2022-12-29T03:29:47;98943.69;;;6.21;59.43
76128;BME280;64873;50.102;14.434;2022-12-29T03:32:19;98965.59;;;6.36;59.43
76128;BME280;64873;50.102;14.434;2022-12-29T03:34:46;98964.91;;;6.21;59.88
76128;BME280;64873;50.102;14.434;2022-12-29T03:37:16;98963.03;;;6.14;59.85
76128;BME280;64873;50.102;14.434;2022-12-29T03:39:43;98970.84;;;6.23;59.83
76128;BME280;64873;50.102;14.434;2022-12-29T03:42:13;98978.63;;;6.31;59.28
76128;BME280;64873;50.102;14.434;2022-12-29T03:44:41;98960.63;;;6.20;59.81
76128;BME280;64873;50.102;14.434;2022-12-29T03:47:07;98959.25;;;6.30;59.31
76128;BME280;64873;50.102;14.434;2022-12-29T03:49:35;98965.94;;;6.20;59.55
76128;BME280;64873;50.102;14.434;2022-12-29T03:52:00;98975.16;;;6.30;59.41
76128;BME280;64873;50.102;14.434;2022-12-29T03:54:26;98970.91;;;6.36;59.19
76128;BME280;64873;50.102;14.434;2022-12-29T03:56:51;98965.13;;;6.26;59.34
76128;BME280;64873;50.102;14.434;2022-12-29T03:59:17;98965.94;;;6.20;59.94
76128;BME280;64873;50.102;14.434;2022-12-29T04:01:43;98962.25;;;6.21;59.71
76128;BME280;64873;50.102;14.434;2022-12-29T04:04:08;98965.19;;;6.39;58.88
76128;BME280;64873;50.102;14.434;2022-12-29T04:06:34;98945.59;;;6.33;58.23
76128;BME280;64873;50.102;14.434;2022-12-29T04:08:59;98959.50;;;6.42;58.52
76128;BME280;64873;50.102;14.434;2022-12-29T04:11:25;98935.34;;;6.24;58.92
76128;BME280;64873;50.102;14.434;2022-12-29T04:13:50;98945.75;;;6.25;59.54
76128;BME280;64873;50.102;14.434;2022-12-29T04:16:16;98942.31;;;6.31;58.56
76128;BME280;64873;50.102;14.434;2022-12-29T04:18:41;98950.53;;;6.50;58.30
76128;BME280;64873;50.102;14.434;2022-12-29T04:21:06;98934.03;;;6.54;58.25
76128;BME280;64873;50.102;14.434;2022-12-29T04:23:34;98929.69;;;6.40;58.41
76128;BME280;64873;50.102;14.434;2022-12-29T04:26:00;98928.69;;;6.41;58.47
76128;BME280;64873;50.102;14.434;2022-12-29T04:28:26;98930.53;;;6.47;59.16
76128;BME280;64873;50.102;14.434;2022-12-29T04:30:51;98933.81;;;6.49;58.56
76128;BME280;64873;50.102;14.434;2022-12-29T04:33:17;98936.69;;;6.61;58.43
76128;BME280;64873;50.102;14.434;2022-12-29T04:35:43;98943.25;;;6.58;58.38
76128;BME280;64873;50.102;14.434;2022-12-29T04:38:09;98945.94;;;6.72;58.28
76128;BME280;64873;50.102;14.434;2022-12-29T04:40:35;98934.69;;;6.70;57.93
76128;BME280;64873;50.102;14.434;2022-12-29T04:43:00;98948.63;;;6.85;57.62
76128;BME280;64873;50.102;14.434;2022-12-29T04:45:26;98940.44;;;6.80;57.65
76128;BME280;64873;50.102;14.434;2022-12-29T04:47:51;98939.81;;;6.78;57.68
76128;BME280;64873;50.102;14.434;2022-12-29T04:50:17;98940.03;;;6.76;57.82
76128;BME280;64873;50.102;14.434;2022-12-29T04:52:42;98927.78;;;6.82;57.77
76128;BME280;64873;50.102;14.434;2022-12-29T04:55:08;98922.03;;;6.65;57.86
76128;BME280;64873;50.102;14.434;2022-12-29T04:57:33;98928.59;;;6.76;57.67
76128;BME280;64873;50.102;14.434;2022-12-29T04:59:58;98935.31;;;6.78;57.54
76128;BME280;64873;50.102;14.434;2022-12-29T05:02:24;98935.91;;;6.67;57.79
76128;BME280;64873;50.102;14.434;2022-12-29T05:04:49;98931.06;;;6.84;58.00
76128;BME280;64873;50.102;14.434;2022-12-29T05:07:15;98936.97;;;6.86;57.94
76128;BME280;64873;50.102;14.434;2022-12-29T05:09:40;98954.75;;;6.85;58.12
76128;BME280;64873;50.102;14.434;2022-12-29T05:12:06;98960.47;;;6.89;57.96
76128;BME280;64873;50.102;14.434;2022-12-29T05:14:31;98950.31;;;6.99;57.80
76128;BME280;64873;50.102;14.434;2022-12-29T05:16:57;98951.31;;;6.98;57.79
76128;BME280;64873;50.102;14.434;2022-12-29T05:19:22;98933.53;;;6.92;57.54
76128;BME280;64873;50.102;14.434;2022-12-29T05:21:48;98924.13;;;6.96;57.05
76128;BME280;64873;50.102;14.434;2022-12-29T05:24:13;98943.94;;;6.87;58.16
76128;BME280;64873;50.102;14.434;2022-12-29T05:26:39;98944.78;;;7.01;57.57
76128;BME280;64873;50.102;14.434;2022-12-29T05:29:04;98929.81;;;6.80;58.06
76128;BME280;64873;50.102;14.434;2022-12-29T05:31:30;98931.06;;;6.90;58.38
76128;BME280;64873;50.102;14.434;2022-12-29T05:33:55;98925.13;;;6.82;58.09
76128;BME280;64873;50.102;14.434;2022-12-29T05:36:20;98938.03;;;6.98;57.94
76128;BME280;64873;50.102;14.434;2022-12-29T05:38:46;98934.31;;;6.86;57.84
76128;BME280;64873;50.102;14.434;2022-12-29T05:41:11;98936.38;;;6.84;58.53
76128;BME280;64873;50.102;14.434;2022-12-29T05:43:37;98930.88;;;6.92;58.03
76128;BME280;64873;50.102;14.434;2022-12-29T05:46:03;98911.41;;;6.78;58.13
76128;BME280;64873;50.102;14.434;2022-12-29T05:48:28;98919.22;;;7.00;57.93
76128;BME280;64873;50.102;14.434;2022-12-29T05:50:54;98915.75;;;6.99;57.62
76128;BME280;64873;50.102;14.434;2022-12-29T05:53:19;98906.97;;;7.05;57.30
76128;BME280;64873;50.102;14.434;2022-12-29T05:55:47;98902.47;;;6.99;57.32
76128;BME280;64873;50.102;14.434;2022-12-29T05:58:13;98904.94;;;7.14;57.12
76128;BME280;64873;50.102;14.434;2022-12-29T06:00:38;98895.94;;;7.08;56.81
76128;BME280;64873;50.102;14.434;2022-12-29T06:03:04;98908.63;;;7.19;56.85
76128;BME280;64873;50.102;14.434;2022-12-29T06:05:29;98910.66;;;7.04;57.53
76128;BME280;64873;50.102;14.434;2022-12-29T06:07:54;98915.97;;;7.04;58.00
76128;BME280;64873;50.102;14.434;2022-12-29T06:10:20;98885.72;;;7.12;56.96
76128;BME280;64873;50.102;14.434;2022-12-29T06:12:46;98917.81;;;7.17;58.16
76128;BME280;64873;50.102;14.434;2022-12-29T06:15:12;98903.09;;;7.14;57.63
76128;BME280;64873;50.102;14.434;2022-12-29T06:17:38;98913.13;;;7.26;57.45
76128;BME280;64873;50.102;14.434;2022-12-29T06:20:04;98913.72;;;7.14;57.20
76128;BME280;64873;50.102;14.434;2022-12-29T06:22:30;98904.53;;;7.24;57.24
76128;BME280;64873;50.102;14.434;2022-12-29T06:24:55;98916.38;;;7.14;57.40
76128;BME280;64873;50.102;14.434;2022-12-29T06:27:21;98916.59;;;7.19;57.18
76128;BME280;64873;50.102;14.434;2022-12-29T06:29:46;98897.38;;;7.04;57.53
76128;BME280;64873;50.102;14.434;2022-12-29T06:32:12;98908.63;;;7.06;58.43
76128;BME280;64873;50.102;14.434;2022-12-29T06:34:37;98912.50;;;7.17;57.77
76128;BME280;64873;50.102;14.434;2022-12-29T06:37:03;98911.88;;;7.08;58.56
76128;BME280;64873;50.102;14.434;2022-12-29T06:39:28;98918.00;;;6.89;59.04
76128;BME280;64873;50.102;14.434;2022-12-29T06:41:54;98920.44;;;6.97;58.46
76128;BME280;64873;50.102;14.434;2022-12-29T06:44:20;98924.53;;;6.86;58.77
76128;BME280;64873;50.102;14.434;2022-12-29T06:46:46;98927.22;;;7.00;58.86
76128;BME280;64873;50.102;14.434;2022-12-29T06:49:12;98931.06;;;6.90;59.45
76128;BME280;64873;50.102;14.434;2022-12-29T06:51:37;98919.63;;;7.03;58.72
76128;BME280;64873;50.102;14.434;2022-12-29T06:54:03;98921.31;;;7.24;57.98
76128;BME280;64873;50.102;14.434;2022-12-29T06:56:28;98939.47;;;7.20;58.43
76128;BME280;64873;50.102;14.434;2022-12-29T06:58:54;98928.03;;;7.27;57.92
76128;BME280;64873;50.102;14.434;2022-12-29T07:01:19;98932.34;;;7.28;57.69
76128;BME280;64873;50.102;14.434;2022-12-29T07:03:45;98921.28;;;7.44;57.50
76128;BME280;64873;50.102;14.434;2022-12-29T07:06:10;98905.16;;;7.19;58.00
76128;BME280;64873;50.102;14.434;2022-12-29T07:08:35;98921.31;;;7.17;57.84
76128;BME280;64873;50.102;14.434;2022-12-29T07:11:01;98922.09;;;7.38;60.29
76128;BME280;64873;50.102;14.434;2022-12-29T07:13:26;98931.13;;;7.57;57.45
76128;BME280;64873;50.102;14.434;2022-12-29T07:15:52;98923.13;;;7.43;56.75
76128;BME280;64873;50.102;14.434;2022-12-29T07:18:17;98950.34;;;7.65;56.88
76128;BME280;64873;50.102;14.434;2022-12-29T07:20:43;98935.59;;;7.49;57.16
76128;BME280;64873;50.102;14.434;2022-12-29T07:23:08;98952.38;;;7.63;56.78
76128;BME280;64873;50.102;14.434;2022-12-29T07:25:34;98950.72;;;7.89;55.68
76128;BME280;64873;50.102;14.434;2022-12-29T07:28:01;98945.41;;;7.89;56.15
76128;BME280;64873;50.102;14.434;2022-12-29T07:30:26;98931.84;;;7.97;55.49
76128;BME280;64873;50.102;14.434;2022-12-29T07:32:52;98908.59;;;7.86;55.63
76128;BME280;64873;50.102;14.434;2022-12-29T07:35:17;98931.47;;;8.00;55.21
76128;BME280;64873;50.102;14.434;2022-12-29T07:37:43;98916.97;;;7.83;55.91
76128;BME280;64873;50.102;14.434;2022-12-29T07:40:09;98922.06;;;7.84;56.29
76128;BME280;64873;50.102;14.434;2022-12-29T07:42:35;98913.91;;;7.86;55.86
76128;BME280;64873;50.102;14.434;2022-12-29T07:45:01;98927.00;;;7.81;57.15
76128;BME280;64873;50.102;14.434;2022-12-29T07:47:26;98924.50;;;7.99;57.82
76128;BME280;64873;50.102;14.434;2022-12-29T07:49:52;98913.22;;;7.97;58.80
76128;BME280;64873;50.102;14.434;2022-12-29T07:52:18;98926.53;;;8.04;57.91
76128;BME280;64873;50.102;14.434;2022-12-29T07:54:43;98922.63;;;8.06;55.38
76128;BME280;64873;50.102;14.434;2022-12-29T07:57:09;98917.94;;;8.01;57.24
76128;BME280;64873;50.102;14.434;2022-12-29T07:59:34;98914.88;;;7.91;56.36
76128;BME280;64873;50.102;14.434;2022-12-29T08:02:00;98925.34;;;7.93;55.77
76128;BME280;64873;50.102;14.434;2022-12-29T08:04:25;98938.44;;;7.88;55.85
76128;BME280;64873;50.102;14.434;2022-12-29T08:06:50;98929.84;;;7.79;56.27
76128;BME280;64873;50.102;14.434;2022-12-29T08:09:16;98935.16;;;7.99;55.46
76128;BME280;64873;50.102;14.434;2022-12-29T08:11:41;98929.81;;;7.99;55.79
76128;BME280;64873;50.102;14.434;2022-12-29T08:14:08;98937.56;;;8.07;55.69
76128;BME280;64873;50.102;14.434;2022-12-29T08:16:34;98943.31;;;8.11;55.78
76128;BME280;64873;50.102;14.434;2022-12-29T08:18:59;98929.00;;;8.05;55.14
76128;BME280;64873;50.102;14.434;2022-12-29T08:21:27;98926.94;;;8.07;55.47
76128;BME280;64873;50.102;14.434;2022-12-29T08:23:52;98926.53;;;8.10;55.68
76128;BME280;64873;50.102;14.434;2022-12-29T08:26:18;98911.41;;;8.04;55.33
76128;BME280;64873;50.102;14.434;2022-12-29T08:28:43;98919.38;;;8.04;55.78
76128;BME280;64873;50.102;14.434;2022-12-29T08:31:09;98928.19;;;7.98;56.77
76128;BME280;64873;50.102;14.434;2022-12-29T08:33:34;98931.09;;;7.77;57.61
76128;BME280;64873;50.102;14.434;2022-12-29T08:36:01;98933.53;;;7.71;57.57
76128;BME280;64873;50.102;14.434;2022-12-29T08:38:28;98930.66;;;7.93;58.85
76128;BME280;64873;50.102;14.434;2022-12-29T08:40:55;98938.81;;;8.11;58.17
76128;BME280;64873;50.102;14.434;2022-12-29T08:43:21;98941.84;;;8.21;56.63
76128;BME280;64873;50.102;14.434;2022-12-29T08:45:46;98955.88;;;8.55;59.10
76128;BME280;64873;50.102;14.434;2022-12-29T08:48:12;98937.47;;;8.47;55.35
76128;BME280;64873;50.102;14.434;2022-12-29T08:50:37;98939.69;;;8.50;55.61
76128;BME280;64873;50.102;14.434;2022-12-29T08:53:03;98934.53;;;8.62;55.37
76128;BME280;64873;50.102;14.434;2022-12-29T08:55:28;98936.75;;;8.71;55.17
76128;BME280;64873;50.102;14.434;2022-12-29T08:57:53;98940.00;;;8.73;54.84
76128;BME280;64873;50.102;14.434;2022-12-29T09:00:19;98944.25;;;8.88;54.82
76128;BME280;64873;50.102;14.434;2022-12-29T09:02:45;98948.19;;;8.78;55.27
76128;BME280;64873;50.102;14.434;2022-12-29T09:05:11;98944.84;;;8.90;55.66
76128;BME280;64873;50.102;14.434;2022-12-29T09:07:36;98935.13;;;9.02;54.91
76128;BME280;64873;50.102;14.434;2022-12-29T09:10:02;98923.22;;;9.04;54.87
76128;BME280;64873;50.102;14.434;2022-12-29T09:12:28;98937.28;;;9.18;54.49
76128;BME280;64873;50.102;14.434;2022-12-29T09:14:53;98935.78;;;9.29;54.45
76128;BME280;64873;50.102;14.434;2022-12-29T09:17:19;98932.53;;;9.20;54.76
76128;BME280;64873;50.102;14.434;2022-12-29T09:20:03;98948.63;;;9.39;54.84
76128;BME280;64873;50.102;14.434;2022-12-29T09:22:29;98946.97;;;9.38;56.70
76128;BME280;64873;50.102;14.434;2022-12-29T09:24:54;98945.16;;;9.38;55.16
76128;BME280;64873;50.102;14.434;2022-12-29T09:27:20;98948.13;;;9.48;54.51
76128;BME280;64873;50.102;14.434;2022-12-29T09:29:45;98943.78;;;9.54;57.17
76128;BME280;64873;50.102;14.434;2022-12-29T09:32:11;98946.06;;;9.50;56.63
76128;BME280;64873;50.102;14.434;2022-12-29T09:34:36;98937.41;;;9.55;54.29
76128;BME280;64873;50.102;14.434;2022-12-29T09:37:01;98927.34;;;9.57;54.11
76128;BME280;64873;50.102;14.434;2022-12-29T09:39:27;98927.78;;;9.54;54.62
76128;BME280;64873;50.102;14.434;2022-12-29T09:42:01;98938.22;;;9.80;54.19
76128;BME280;64873;50.102;14.434;2022-12-29T09:44:54;98938.16;;;9.87;54.21
76128;BME280;64873;50.102;14.434;2022-12-29T09:47:22;98940.91;;;9.99;53.44
76128;BME280;64873;50.102;14.434;2022-12-29T09:52:23;98932.59;;;10.07;53.52
76128;BME280;64873;50.102;14.434;2022-12-29T09:57:58;98925.47;;;10.19;53.63
76128;BME280;64873;50.102;14.434;2022-12-29T10:00:37;98903.84;;;10.09;54.12
76128;BME280;64873;50.102;14.434;2022-12-29T10:03:13;98916.72;;;10.12;54.10
76128;BME280;64873;50.102;14.434;2022-12-29T10:06:12;98914.78;;;10.01;56.00
76128;BME280;64873;50.102;14.434;2022-12-29T10:08:50;98902.34;;;9.95;55.13
76128;BME280;64873;50.102;14.434;2022-12-29T10:24:49;98882.69;;;10.07;54.78
76128;BME280;64873;50.102;14.434;2022-12-29T10:27:16;98893.44;;;10.19;55.14
76128;BME280;64873;50.102;14.434;2022-12-29T10:30:11;98893.44;;;10.19;55.48
76128;BME280;64873;50.102;14.434;2022-12-29T10:32:58;98888.56;;;10.16;55.43
76128;BME280;64873;50.102;14.434;2022-12-29T10:35:33;98876.69;;;10.12;55.50
76128;BME280;64873;50.102;14.434;2022-12-29T10:38:23;98873.28;;;10.23;55.37
76128;BME280;64873;50.102;14.434;2022-12-29T10:41:00;98878.03;;;10.21;55.46
76128;BME280;64873;50.102;14.434;2022-12-29T10:43:56;98882.66;;;10.32;54.96
76128;BME280;64873;50.102;14.434;2022-12-29T10:46:28;98862.44;;;10.36;54.57
76128;BME280;64873;50.102;14.434;2022-12-29T10:48:54;98859.16;;;10.53;53.79
76128;BME280;64873;50.102;14.434;2022-12-29T10:51:25;98847.69;;;10.64;53.39
76128;BME280;64873;50.102;14.434;2022-12-29T10:54:39;98841.47;;;10.82;52.25
76128;BME280;64873;50.102;14.434;2022-12-29T10:57:00;98837.91;;;11.11;51.46
76128;BME280;64873;50.102;14.434;2022-12-29T10:59:33;98825.47;;;11.17;51.51
76128;BME280;64873;50.102;14.434;2022-12-29T11:07:18;98799.66;;;11.23;51.04
76128;BME280;64873;50.102;14.434;2022-12-29T11:09:45;98809.31;;;11.35;50.47
76128;BME280;64873;50.102;14.434;2022-12-29T11:12:29;98816.88;;;11.38;50.90
76128;BME280;64873;50.102;14.434;2022-12-29T11:17:52;98787.91;;;11.47;50.65
76128;BME280;64873;50.102;14.434;2022-12-29T11:20:36;98808.13;;;11.55;50.85
76128;BME280;64873;50.102;14.434;2022-12-29T11:28:39;98795.38;;;11.45;51.52
76128;BME280;64873;50.102;14.434;2022-12-29T11:31:07;98779.63;;;11.48;51.40
76128;BME280;64873;50.102;14.434;2022-12-29T11:33:35;98793.50;;;11.57;51.45
76128;BME280;64873;50.102;14.434;2022-12-29T11:36:08;98800.34;;;11.65;51.13
76128;BME280;64873;50.102;14.434;2022-12-29T11:38:39;98797.09;;;11.63;51.41
76128;BME280;64873;50.102;14.434;2022-12-29T11:41:11;98794.53;;;11.68;51.29
76128;BME280;64873;50.102;14.434;2022-12-29T11:43:40;98801.25;;;11.70;51.32
76128;BME280;64873;50.102;14.434;2022-12-29T11:46:16;98805.09;;;11.74;51.61
76128;BME280;64873;50.102;14.434;2022-12-29T11:48:43;98805.81;;;11.70;51.23
76128;BME280;64873;50.102;14.434;2022-12-29T11:51:09;98815.44;;;11.71;51.44
76128;BME280;64873;50.102;14.434;2022-12-29T11:53:44;98807.69;;;11.81;51.33
76128;BME280;64873;50.102;14.434;2022-12-29T11:56:21;98800.44;;;11.82;51.00
76128;BME280;64873;50.102;14.434;2022-12-29T11:58:49;98782.38;;;11.77;50.88
76128;BME280;64873;50.102;14.434;2022-12-29T12:01:20;98809.63;;;11.97;50.73
76128;BME280;64873;50.102;14.434;2022-12-29T12:04:08;98813.69;;;12.00;51.06
76128;BME280;64873;50.102;14.434;2022-12-29T12:06:44;98811.69;;;11.95;50.78
76128;BME280;64873;50.102;14.434;2022-12-29T12:09:19;98811.69;;;11.95;50.97
76128;BME280;64873;50.102;14.434;2022-12-29T12:11:51;98803.06;;;12.05;50.71
76128;BME280;64873;50.102;14.434;2022-12-29T12:14:27;98816.94;;;12.02;50.70
76128;BME280;64873;50.102;14.434;2022-12-29T12:17:04;98812.88;;;11.99;50.92
76128;BME280;64873;50.102;14.434;2022-12-29T12:19:51;98804.84;;;11.88;51.24
76128;BME280;64873;50.102;14.434;2022-12-29T12:22:31;98811.94;;;11.94;50.95
76128;BME280;64873;50.102;14.434;2022-12-29T12:27:52;98787.63;;;11.72;51.46
76128;BME280;64873;50.102;14.434;2022-12-29T12:30:24;98817.69;;;11.86;51.77
76128;BME280;64873;50.102;14.434;2022-12-29T12:32:59;98811.50;;;11.85;51.92
76128;BME280;64873;50.102;14.434;2022-12-29T12:41:05;98806.38;;;11.84;52.42
76128;BME280;64873;50.102;14.434;2022-12-29T12:43:50;98804.28;;;11.74;53.81
76128;BME280;64873;50.102;14.434;2022-12-29T12:52:04;98787.41;;;11.73;52.97
76128;BME280;64873;50.102;14.434;2022-12-29T13:00:09;98787.53;;;11.67;53.04
76128;BME280;64873;50.102;14.434;2022-12-29T13:02:49;98786.00;;;11.71;53.08
76128;BME280;64873;50.102;14.434;2022-12-29T13:11:08;98778.34;;;11.74;52.82
76128;BME280;64873;50.102;14.434;2022-12-29T13:29:54;98790.09;;;11.73;53.70
76128;BME280;64873;50.102;14.434;2022-12-29T13:38:08;98787.31;;;11.57;54.08
76128;BME280;64873;50.102;14.434;2022-12-29T13:40:44;98798.72;;;11.64;54.23
76128;BME280;64873;50.102;14.434;2022-12-29T13:43:12;98803.72;;;11.60;54.14
76128;BME280;64873;50.102;14.434;2022-12-29T13:45:39;98807.78;;;11.63;54.21
76128;BME280;64873;50.102;14.434;2022-12-29T13:48:19;98802.75;;;11.66;54.07
76128;BME280;64873;50.102;14.434;2022-12-29T13:50:57;98799.16;;;11.61;54.38
76128;BME280;64873;50.102;14.434;2022-12-29T13:53:40;98785.78;;;11.61;54.64
76128;BME280;64873;50.102;14.434;2022-12-29T13:56:25;98805.41;;;11.78;53.61
76128;BME280;64873;50.102;14.434;2022-12-29T13:58:58;98806.28;;;11.90;52.99
76128;BME280;64873;50.102;14.434;2022-12-29T14:01:34;98811.25;;;11.98;52.75
76128;BME280;64873;50.102;14.434;2022-12-29T14:04:03;98810.31;;;11.93;52.88
76128;BME280;64873;50.102;14.434;2022-12-29T14:06:35;98800.22;;;11.83;52.85
76128;BME280;64873;50.102;14.434;2022-12-29T14:09:07;98815.19;;;11.96;52.65
76128;BME280;64873;50.102;14.434;2022-12-29T14:11:51;98812.75;;;11.94;52.57
76128;BME280;64873;50.102;14.434;2022-12-29T14:16:47;98814.28;;;12.02;52.54
76128;BME280;64873;50.102;14.434;2022-12-29T14:19:16;98809.47;;;12.04;52.19
76128;BME280;64873;50.102;14.434;2022-12-29T14:21:54;98808.47;;;11.82;52.78
76128;BME280;64873;50.102;14.434;2022-12-29T14:26:51;98811.63;;;11.67;53.35
76128;BME280;64873;50.102;14.434;2022-12-29T14:31:49;98822.69;;;11.59;53.59
76128;BME280;64873;50.102;14.434;2022-12-29T14:34:16;98815.16;;;11.44;53.88
76128;BME280;64873;50.102;14.434;2022-12-29T14:37:01;98820.38;;;11.51;54.06
76128;BME280;64873;50.102;14.434;2022-12-29T14:39:39;98831.75;;;11.58;53.62
76128;BME280;64873;50.102;14.434;2022-12-29T14:47:20;98834.56;;;11.39;54.10
76128;BME280;64873;50.102;14.434;2022-12-29T14:49:48;98832.13;;;11.38;53.92
76128;BME280;64873;50.102;14.434;2022-12-29T14:52:18;98836.63;;;11.37;54.70
76128;BME280;64873;50.102;14.434;2022-12-29T14:57:35;98829.91;;;11.46;53.43
76128;BME280;64873;50.102;14.434;2022-12-29T15:00:15;98826.88;;;11.31;53.82
76128;BME280;64873;50.102;14.434;2022-12-29T15:02:45;98817.47;;;11.17;54.27
76128;BME280;64873;50.102;14.434;2022-12-29T15:05:42;98838.50;;;11.25;54.06
76128;BME280;64873;50.102;14.434;2022-12-29T15:08:10;98826.78;;;11.14;54.63
76128;BME280;64873;50.102;14.434;2022-12-29T15:10:45;98857.00;;;11.15;54.74
76128;BME280;64873;50.102;14.434;2022-12-29T15:13:22;98840.25;;;11.19;54.54
76128;BME280;64873;50.102;14.434;2022-12-29T15:15:48;98843.75;;;11.08;54.87
76128;BME280;64873;50.102;14.434;2022-12-29T15:18:26;98845.91;;;11.00;55.08
76128;BME280;64873;50.102;14.434;2022-12-29T15:20:58;98839.59;;;10.82;55.57
76128;BME280;64873;50.102;14.434;2022-12-29T15:23:24;98846.13;;;10.86;55.81
76128;BME280;64873;50.102;14.434;2022-12-29T15:26:05;98844.13;;;10.82;55.86
76128;BME280;64873;50.102;14.434;2022-12-29T15:28:44;98837.97;;;10.81;55.78